Time;durP1;ratioP1;P1;durP2;ratioP2;P2;SDS_P1;SDS_P2;PMS_P1;PMS_P2;Temp;Humidity;BMP_temperature;BMP_pressure;BME280_temperature;BME280_humidity;BME280_pressure;Samples;Min_cycle;Max_cycle;Signal;HPM_P1;HPM_P2
2021/01/29 00:00:38;;;;;;;2.33;1.20;;;;;;;;;;4949875;28;20055;-77
2021/01/29 00:03:09;;;;;;;3.33;1.40;;;;;;;;;;4950180;29;20028;-77
2021/01/29 00:05:38;;;;;;;3.13;1.60;;;;;;;;;;4935775;29;20027;-78
2021/01/29 00:08:04;;;;;;;3.47;1.80;;;;;;;;;;4949781;29;20078;-77
2021/01/29 00:10:30;;;;;;;3.00;1.80;;;;;;;;;;4950066;28;20042;-78
2021/01/29 00:12:57;;;;;;;2.90;1.67;;;;;;;;;;4934107;29;20083;-77
2021/01/29 00:15:23;;;;;;;4.63;1.37;;;;;;;;;;4933544;29;20032;-77
2021/01/29 00:17:49;;;;;;;2.83;1.30;;;;;;;;;;4934128;29;20144;-78
2021/01/29 00:20:21;;;;;;;2.97;1.10;;;;;;;;;;4933483;29;20047;-78
2021/01/29 00:22:47;;;;;;;3.13;1.30;;;;;;;;;;4933871;29;20641;-78
2021/01/29 00:25:16;;;;;;;2.40;0.90;;;;;;;;;;4949586;29;20024;-77
2021/01/29 00:27:42;;;;;;;2.30;1.20;;;;;;;;;;4950150;29;20417;-77
2021/01/29 00:30:08;;;;;;;2.50;0.90;;;;;;;;;;4933628;29;20034;-77
2021/01/29 00:32:34;;;;;;;3.03;1.27;;;;;;;;;;4933822;29;20086;-77
2021/01/29 00:35:02;;;;;;;3.57;1.40;;;;;;;;;;4934177;29;20027;-77
2021/01/29 00:37:28;;;;;;;3.90;1.20;;;;;;;;;;4933765;29;20036;-77
2021/01/29 00:39:54;;;;;;;3.40;1.53;;;;;;;;;;4933698;29;20707;-77
2021/01/29 00:42:20;;;;;;;3.60;1.20;;;;;;;;;;4933705;29;20028;-77
2021/01/29 00:44:46;;;;;;;5.10;1.10;;;;;;;;;;4933776;29;20027;-77
2021/01/29 00:47:12;;;;;;;2.23;1.10;;;;;;;;;;4933522;29;20160;-77
2021/01/29 00:49:38;;;;;;;2.77;1.00;;;;;;;;;;4933605;29;20090;-77
2021/01/29 00:52:04;;;;;;;2.33;1.23;;;;;;;;;;4933511;29;20038;-77
2021/01/29 00:54:30;;;;;;;2.33;1.10;;;;;;;;;;4933301;29;20035;-77
2021/01/29 00:56:57;;;;;;;2.63;0.90;;;;;;;;;;4935408;29;20031;-77
2021/01/29 00:59:23;;;;;;;3.43;1.23;;;;;;;;;;4934618;29;20042;-77
2021/01/29 01:01:49;;;;;;;1.77;1.07;;;;;;;;;;4936764;29;20038;-77
2021/01/29 01:04:15;;;;;;;1.77;0.93;;;;;;;;;;4938348;29;20038;-77
2021/01/29 01:06:42;;;;;;;1.77;0.93;;;;;;;;;;4938401;29;20028;-78
2021/01/29 01:09:08;;;;;;;2.57;1.00;;;;;;;;;;4936637;29;20070;-77
2021/01/29 01:11:35;;;;;;;2.17;1.00;;;;;;;;;;4936747;29;20118;-77
2021/01/29 01:14:01;;;;;;;1.57;0.67;;;;;;;;;;4936607;29;20390;-77
2021/01/29 01:16:28;;;;;;;3.07;1.20;;;;;;;;;;4936252;29;20438;-77
2021/01/29 01:18:54;;;;;;;2.57;1.13;;;;;;;;;;4936023;29;20024;-77
2021/01/29 01:21:20;;;;;;;3.93;1.03;;;;;;;;;;4937065;29;20031;-77
2021/01/29 01:23:48;;;;;;;2.53;1.20;;;;;;;;;;4936455;29;20074;-77
2021/01/29 01:26:14;;;;;;;3.53;1.33;;;;;;;;;;4936592;29;20119;-77
2021/01/29 01:28:40;;;;;;;3.60;1.20;;;;;;;;;;4936050;29;20031;-77
2021/01/29 01:31:06;;;;;;;1.57;0.90;;;;;;;;;;4936227;29;20032;-77
2021/01/29 01:33:32;;;;;;;1.73;1.00;;;;;;;;;;4936450;29;20031;-77
2021/01/29 01:35:58;;;;;;;3.73;1.60;;;;;;;;;;4936603;29;20042;-77
2021/01/29 01:38:24;;;;;;;2.00;1.00;;;;;;;;;;4936518;29;20112;-77
2021/01/29 01:40:50;;;;;;;2.83;0.90;;;;;;;;;;4952095;28;20513;-77
2021/01/29 01:43:17;;;;;;;2.57;1.20;;;;;;;;;;4937935;29;20042;-77
2021/01/29 01:45:55;;;;;;;2.47;1.10;;;;;;;;;;4952933;29;20028;-77
2021/01/29 01:48:42;;;;;;;2.00;1.00;;;;;;;;;;4952390;29;20035;-77
2021/01/29 01:51:09;;;;;;;4.60;1.23;;;;;;;;;;4936244;29;20067;-77
2021/01/29 01:53:39;;;;;;;3.00;1.27;;;;;;;;;;4952705;29;20028;-77
2021/01/29 01:56:23;;;;;;;4.07;1.37;;;;;;;;;;4952273;29;20038;-77
2021/01/29 01:58:51;;;;;;;4.23;1.53;;;;;;;;;;4951015;29;20115;-77
2021/01/29 02:01:18;;;;;;;3.37;1.30;;;;;;;;;;4951380;29;20070;-78
2021/01/29 02:03:46;;;;;;;3.17;1.40;;;;;;;;;;4952392;29;20032;-78
2021/01/29 02:06:12;;;;;;;2.80;1.37;;;;;;;;;;4953135;29;20032;-78
2021/01/29 02:08:39;;;;;;;5.00;1.70;;;;;;;;;;4953542;29;20027;-78
2021/01/29 02:11:05;;;;;;;3.27;1.60;;;;;;;;;;4953329;28;20055;-78
2021/01/29 02:13:32;;;;;;;2.53;1.60;;;;;;;;;;4953879;29;20432;-78
2021/01/29 02:16:00;;;;;;;3.30;1.73;;;;;;;;;;4952848;29;20039;-77
2021/01/29 02:18:26;;;;;;;7.37;1.60;;;;;;;;;;4951958;29;20043;-78
2021/01/29 02:20:52;;;;;;;3.00;1.90;;;;;;;;;;4952372;28;20175;-78
2021/01/29 02:23:37;;;;;;;3.50;1.70;;;;;;;;;;4937891;29;20476;-78
2021/01/29 02:26:22;;;;;;;3.87;1.43;;;;;;;;;;4953713;29;20175;-78
2021/01/29 02:28:51;;;;;;;2.67;1.57;;;;;;;;;;4951801;29;20036;-78
2021/01/29 02:31:20;;;;;;;4.90;1.60;;;;;;;;;;4951781;29;20027;-78
2021/01/29 02:33:52;;;;;;;3.20;1.50;;;;;;;;;;4951651;29;20032;-78
2021/01/29 02:36:31;;;;;;;4.17;1.50;;;;;;;;;;4951453;29;20053;-78
2021/01/29 02:39:09;;;;;;;3.07;1.30;;;;;;;;;;4951006;29;20035;-78
2021/01/29 02:41:46;;;;;;;3.10;1.50;;;;;;;;;;4951381;29;20035;-78
2021/01/29 02:44:31;;;;;;;2.83;1.73;;;;;;;;;;4951994;29;20035;-78
2021/01/29 02:46:59;;;;;;;7.87;1.87;;;;;;;;;;4936993;29;20024;-78
2021/01/29 02:49:28;;;;;;;5.13;2.13;;;;;;;;;;4936236;29;20074;-78
2021/01/29 02:52:01;;;;;;;3.87;2.20;;;;;;;;;;4950822;29;20035;-77
2021/01/29 02:54:39;;;;;;;5.10;1.93;;;;;;;;;;4951136;29;20034;-78
2021/01/29 02:57:10;;;;;;;6.57;2.50;;;;;;;;;;4938560;29;20027;-78
2021/01/29 02:59:38;;;;;;;5.23;2.83;;;;;;;;;;4952858;28;20035;-78
2021/01/29 03:02:08;;;;;;;5.63;2.73;;;;;;;;;;4953422;29;20035;-78
2021/01/29 03:04:37;;;;;;;5.07;2.57;;;;;;;;;;4953869;29;20028;-78
2021/01/29 03:07:07;;;;;;;6.57;3.33;;;;;;;;;;4939429;29;20031;-78
2021/01/29 03:09:33;;;;;;;7.13;3.93;;;;;;;;;;4953239;28;20032;-78
2021/01/29 03:11:59;;;;;;;8.03;3.97;;;;;;;;;;4952363;29;20027;-78
2021/01/29 03:14:45;;;;;;;7.53;4.13;;;;;;;;;;4937708;29;20106;-79
2021/01/29 03:17:12;;;;;;;9.10;4.80;;;;;;;;;;4951670;29;20176;-77
2021/01/29 03:19:48;;;;;;;7.87;4.90;;;;;;;;;;4950589;28;20028;-78
2021/01/29 03:22:17;;;;;;;8.23;4.83;;;;;;;;;;4949880;28;20032;-77
2021/01/29 03:24:45;;;;;;;9.50;5.07;;;;;;;;;;4951697;29;20028;-78
2021/01/29 03:27:21;;;;;;;9.63;5.60;;;;;;;;;;4951579;29;20036;-78
2021/01/29 03:29:50;;;;;;;8.87;5.63;;;;;;;;;;4948475;28;20119;-78
2021/01/29 03:32:16;;;;;;;9.47;5.83;;;;;;;;;;4956121;28;20140;-78
2021/01/29 03:34:42;;;;;;;15.10;8.63;;;;;;;;;;4951245;29;20036;-78
2021/01/29 03:37:22;;;;;;;12.10;7.10;;;;;;;;;;4951049;29;20027;-77
2021/01/29 03:39:48;;;;;;;8.80;4.57;;;;;;;;;;4937006;29;20734;-78
2021/01/29 03:42:19;;;;;;;6.20;3.60;;;;;;;;;;4951817;29;20644;-79
2021/01/29 03:44:55;;;;;;;6.87;3.40;;;;;;;;;;4948606;29;20052;-78
2021/01/29 03:47:35;;;;;;;4.87;2.90;;;;;;;;;;4984618;28;20117;-78
2021/01/29 03:50:10;;;;;;;4.23;2.63;;;;;;;;;;4954336;28;20031;-77
2021/01/29 03:52:59;;;;;;;5.07;2.90;;;;;;;;;;4955876;29;20032;-78
2021/01/29 03:55:37;;;;;;;6.00;3.50;;;;;;;;;;4954070;29;20031;-77
2021/01/29 03:58:19;;;;;;;5.60;3.30;;;;;;;;;;4954110;29;20398;-77
2021/01/29 04:00:52;;;;;;;5.63;3.30;;;;;;;;;;4953926;28;20027;-77
2021/01/29 04:03:24;;;;;;;5.30;2.90;;;;;;;;;;4954074;29;20034;-77
2021/01/29 04:05:54;;;;;;;4.03;2.03;;;;;;;;;;4954055;29;20031;-78
2021/01/29 04:08:28;;;;;;;7.40;2.10;;;;;;;;;;4955649;28;20042;-78
2021/01/29 04:10:57;;;;;;;4.03;1.75;;;;;;;;;;4953986;28;20046;-78
2021/01/29 04:13:27;;;;;;;2.67;1.43;;;;;;;;;;4940920;29;20055;-78
2021/01/29 04:15:54;;;;;;;3.37;1.37;;;;;;;;;;4934153;29;20036;-78
2021/01/29 04:18:32;;;;;;;3.83;1.17;;;;;;;;;;4935019;29;20058;-78
2021/01/29 04:21:17;;;;;;;1.87;0.90;;;;;;;;;;4936005;29;20035;-78
2021/01/29 04:23:49;;;;;;;2.77;1.33;;;;;;;;;;4934303;29;20031;-78
2021/01/29 04:26:18;;;;;;;3.07;1.03;;;;;;;;;;4934427;29;20110;-78
2021/01/29 04:28:46;;;;;;;4.27;1.23;;;;;;;;;;4934084;29;20086;-76
2021/01/29 04:31:14;;;;;;;3.90;1.60;;;;;;;;;;4933922;29;20054;-77
2021/01/29 04:33:48;;;;;;;7.23;2.40;;;;;;;;;;4933904;29;20027;-78
2021/01/29 04:36:16;;;;;;;5.57;2.33;;;;;;;;;;4949317;29;20027;-78
2021/01/29 04:38:44;;;;;;;9.50;3.37;;;;;;;;;;4949425;29;20704;-78
2021/01/29 04:41:29;;;;;;;2.73;1.50;;;;;;;;;;4949361;28;20035;-78
2021/01/29 04:43:55;;;;;;;1.67;0.80;;;;;;;;;;4951169;29;20036;-78
2021/01/29 04:46:21;;;;;;;2.53;0.60;;;;;;;;;;4935738;29;20103;-78
2021/01/29 04:49:06;;;;;;;2.50;0.93;;;;;;;;;;4949623;29;20036;-78
2021/01/29 04:51:35;;;;;;;6.93;2.23;;;;;;;;;;4949487;29;20063;-78
2021/01/29 04:54:19;;;;;;;3.77;1.00;;;;;;;;;;4949576;29;20028;-78
2021/01/29 04:56:53;;;;;;;5.57;1.40;;;;;;;;;;4949095;29;20118;-79
2021/01/29 04:59:39;;;;;;;4.73;1.30;;;;;;;;;;4944260;28;20044;-77
2021/01/29 05:02:05;;;;;;;1.33;0.60;;;;;;;;;;4914735;29;20029;-77
2021/01/29 05:04:52;;;;;;;4.73;0.73;;;;;;;;;;4941668;29;20023;-76
2021/01/29 05:07:18;;;;;;;2.90;0.67;;;;;;;;;;4947626;29;20035;-77
2021/01/29 05:09:50;;;;;;;3.33;1.00;;;;;;;;;;4947107;28;20028;-77
2021/01/29 05:12:17;;;;;;;2.40;0.60;;;;;;;;;;4947070;29;20027;-77
2021/01/29 05:14:49;;;;;;;1.90;0.33;;;;;;;;;;4947889;29;20561;-77
2021/01/29 05:17:21;;;;;;;0.90;0.40;;;;;;;;;;4933168;29;20691;-76
2021/01/29 05:20:00;;;;;;;0.70;0.33;;;;;;;;;;4948124;28;20593;-77
2021/01/29 05:22:58;;;;;;;2.10;0.20;;;;;;;;;;4947782;29;20167;-78
2021/01/29 05:25:43;;;;;;;0.53;0.33;;;;;;;;;;4900114;29;20372;-77
2021/01/29 05:28:24;;;;;;;1.80;0.70;;;;;;;;;;4945697;29;20054;-76
2021/01/29 05:30:56;;;;;;;1.97;0.43;;;;;;;;;;4930786;29;20102;-75
2021/01/29 05:33:34;;;;;;;3.77;1.50;;;;;;;;;;4944737;29;20032;-75
2021/01/29 05:36:04;;;;;;;3.73;1.80;;;;;;;;;;4945054;29;20031;-76
2021/01/29 05:38:30;;;;;;;0.93;0.60;;;;;;;;;;4961755;28;20039;-75
2021/01/29 05:41:15;;;;;;;1.27;0.60;;;;;;;;;;4947667;28;20020;-75
2021/01/29 05:43:50;;;;;;;1.50;0.63;;;;;;;;;;4944846;29;20047;-75
2021/01/29 05:46:22;;;;;;;1.93;1.00;;;;;;;;;;4947157;28;20028;-75
2021/01/29 05:49:08;;;;;;;1.43;0.53;;;;;;;;;;4945639;29;20738;-76
2021/01/29 05:51:37;;;;;;;2.63;1.67;;;;;;;;;;4930115;29;20016;-76
2021/01/29 05:54:03;;;;;;;2.03;1.00;;;;;;;;;;4933513;29;20059;-75
2021/01/29 05:56:48;;;;;;;2.00;1.00;;;;;;;;;;4930111;29;20076;-77
2021/01/29 05:59:28;;;;;;;2.10;0.93;;;;;;;;;;4954288;28;20046;-75
2021/01/29 06:02:21;;;;;;;1.40;0.93;;;;;;;;;;4949249;28;20027;-75
2021/01/29 06:04:47;;;;;;;1.23;0.60;;;;;;;;;;4901569;29;20534;-76
2021/01/29 06:07:25;;;;;;;1.33;0.20;;;;;;;;;;4946458;29;20024;-74
2021/01/29 06:10:18;;;;;;;0.90;0.50;;;;;;;;;;4947030;28;20131;-74
2021/01/29 06:13:13;;;;;;;2.30;0.70;;;;;;;;;;4922493;29;20587;-74
2021/01/29 06:15:51;;;;;;;3.40;0.80;;;;;;;;;;4942988;28;20039;-76
2021/01/29 06:18:19;;;;;;;4.53;0.83;;;;;;;;;;4939640;29;20039;-76
2021/01/29 06:21:01;;;;;;;1.60;0.70;;;;;;;;;;4944343;28;20118;-75
2021/01/29 06:23:33;;;;;;;1.27;0.63;;;;;;;;;;4944169;28;20032;-75
2021/01/29 06:26:04;;;;;;;2.00;0.87;;;;;;;;;;4947095;29;20039;-78
2021/01/29 06:28:49;;;;;;;2.00;0.73;;;;;;;;;;4957135;28;20035;-79
2021/01/29 06:31:26;;;;;;;3.43;1.67;;;;;;;;;;4945349;28;20036;-78
2021/01/29 06:33:58;;;;;;;2.50;1.43;;;;;;;;;;4947907;28;20383;-76
2021/01/29 06:36:43;;;;;;;2.57;1.23;;;;;;;;;;4948307;29;20126;-77
2021/01/29 06:39:12;;;;;;;0.93;0.50;;;;;;;;;;4941526;29;20084;-76
2021/01/29 06:41:48;;;;;;;6.37;1.10;;;;;;;;;;4949482;28;20046;-76
2021/01/29 06:44:23;;;;;;;0.87;0.47;;;;;;;;;;4947801;29;20031;-78
2021/01/29 06:46:49;;;;;;;2.43;1.17;;;;;;;;;;4928857;29;20036;-77
2021/01/29 06:49:24;;;;;;;1.90;0.53;;;;;;;;;;4938145;29;20660;-75
2021/01/29 06:52:09;;;;;;;0.97;0.60;;;;;;;;;;4939122;29;20039;-75
2021/01/29 06:54:42;;;;;;;1.00;0.40;;;;;;;;;;4936164;28;20028;-75
2021/01/29 06:57:10;;;;;;;0.37;0.37;;;;;;;;;;4936140;28;20031;-76
2021/01/29 06:59:36;;;;;;;1.40;0.60;;;;;;;;;;4933045;28;20038;-76
2021/01/29 07:02:18;;;;;;;0.50;0.30;;;;;;;;;;4937590;28;20063;-75
2021/01/29 07:05:00;;;;;;;1.80;0.57;;;;;;;;;;4925873;29;20513;-75
2021/01/29 07:07:32;;;;;;;1.35;0.50;;;;;;;;;;4942773;29;20031;-74
2021/01/29 07:10:19;;;;;;;0.73;0.30;;;;;;;;;;4928870;29;20028;-75
2021/01/29 07:12:47;;;;;;;0.70;0.20;;;;;;;;;;4910655;29;20494;-75
2021/01/29 07:15:33;;;;;;;0.63;0.33;;;;;;;;;;4944623;29;20028;-74
2021/01/29 07:18:08;;;;;;;1.13;0.30;;;;;;;;;;4945020;29;20027;-75
2021/01/29 07:20:41;;;;;;;4.97;0.27;;;;;;;;;;4944206;28;20053;-76
2021/01/29 07:23:16;;;;;;;7.35;2.15;;;;;;;;;;4947769;28;20024;-76
2021/01/29 07:26:00;;;;;;;8.50;3.60;;;;;;;;;;4958223;28;20035;-75
2021/01/29 07:28:45;;;;;;;2.97;0.93;;;;;;;;;;4945032;28;20066;-74
2021/01/29 07:31:29;;;;;;;3.20;0.93;;;;;;;;;;4931000;29;20191;-75
2021/01/29 07:34:05;;;;;;;3.70;1.27;;;;;;;;;;4934456;29;20111;-74
2021/01/29 07:36:35;;;;;;;2.53;1.13;;;;;;;;;;4946932;29;20502;-76
2021/01/29 07:39:19;;;;;;;2.30;0.80;;;;;;;;;;4946235;29;20044;-73
2021/01/29 07:41:52;;;;;;;2.23;0.90;;;;;;;;;;4943182;28;20086;-75
2021/01/29 07:44:30;;;;;;;4.93;0.70;;;;;;;;;;4937571;29;20063;-74
2021/01/29 07:47:05;;;;;;;1.77;0.30;;;;;;;;;;4928988;29;20454;-76
2021/01/29 07:49:31;;;;;;;3.97;1.90;;;;;;;;;;4944080;28;20032;-75
2021/01/29 07:52:10;;;;;;;1.80;0.70;;;;;;;;;;4943947;29;20446;-75
2021/01/29 07:54:43;;;;;;;7.00;1.73;;;;;;;;;;4929168;29;20068;-74
2021/01/29 07:57:09;;;;;;;1.50;0.40;;;;;;;;;;4929933;29;20061;-74
2021/01/29 07:59:53;;;;;;;1.50;0.50;;;;;;;;;;4941796;28;20044;-74
2021/01/29 08:02:23;;;;;;;5.40;2.03;;;;;;;;;;4945345;29;20043;-74
2021/01/29 08:04:57;;;;;;;1.60;0.50;;;;;;;;;;4930527;29;20031;-75
2021/01/29 08:07:26;;;;;;;0.90;0.20;;;;;;;;;;4944804;29;20031;-75
2021/01/29 08:09:53;;;;;;;1.53;0.40;;;;;;;;;;4929316;29;20062;-75
2021/01/29 08:12:20;;;;;;;0.87;0.40;;;;;;;;;;4943916;29;20028;-76
2021/01/29 08:14:55;;;;;;;0.67;0.30;;;;;;;;;;4939190;29;20062;-75
2021/01/29 08:17:27;;;;;;;1.07;0.43;;;;;;;;;;4945293;29;20031;-75
2021/01/29 08:20:01;;;;;;;0.30;0.17;;;;;;;;;;4945106;28;20042;-74
2021/01/29 08:22:46;;;;;;;0.27;0.20;;;;;;;;;;4928753;29;20114;-75
2021/01/29 08:25:31;;;;;;;4.03;0.20;;;;;;;;;;4938876;29;20039;-75
2021/01/29 08:28:00;;;;;;;1.13;0.30;;;;;;;;;;4932615;29;20673;-74
2021/01/29 08:30:38;;;;;;;1.70;0.73;;;;;;;;;;4927838;29;20036;-75
2021/01/29 08:33:12;;;;;;;0.10;0.10;;;;;;;;;;4942938;29;20079;-75
2021/01/29 08:35:51;;;;;;;0.90;0.30;;;;;;;;;;4943510;29;20038;-75
2021/01/29 08:38:26;;;;;;;0.63;0.13;;;;;;;;;;4927477;29;20502;-75
2021/01/29 08:40:55;;;;;;;1.50;0.23;;;;;;;;;;4941058;28;20039;-75
2021/01/29 08:43:21;;;;;;;0.90;0.33;;;;;;;;;;4943157;29;20110;-75
2021/01/29 08:45:51;;;;;;;0.90;0.10;;;;;;;;;;4927215;29;20063;-75
2021/01/29 08:48:29;;;;;;;1.07;0.30;;;;;;;;;;4928707;29;20032;-76
2021/01/29 08:51:24;;;;;;;0.60;0.20;;;;;;;;;;4945453;28;20039;-75
2021/01/29 08:53:57;;;;;;;0.93;0.37;;;;;;;;;;4875245;29;20041;-75
2021/01/29 08:56:38;;;;;;;0.10;0.10;;;;;;;;;;4943724;29;20092;-75
2021/01/29 08:59:06;;;;;;;1.93;0.30;;;;;;;;;;4924571;29;20032;-76
2021/01/29 09:01:43;;;;;;;1.47;0.73;;;;;;;;;;4945205;28;20036;-75
2021/01/29 09:04:19;;;;;;;1.33;0.20;;;;;;;;;;4943843;29;20040;-75
2021/01/29 09:06:46;;;;;;;0.17;0.00;;;;;;;;;;4943582;29;20036;-75
2021/01/29 09:09:17;;;;;;;1.17;0.20;;;;;;;;;;4941973;28;20114;-76
2021/01/29 09:11:47;;;;;;;1.43;0.40;;;;;;;;;;4941445;29;20995;-75
2021/01/29 09:14:35;;;;;;;0.93;0.37;;;;;;;;;;4923347;29;20095;-77
2021/01/29 09:17:06;;;;;;;0.27;0.10;;;;;;;;;;4943475;29;20031;-76
2021/01/29 09:19:34;;;;;;;0.20;0.20;;;;;;;;;;4927189;29;20035;-76
2021/01/29 09:22:15;;;;;;;0.93;0.30;;;;;;;;;;4943686;29;20035;-76
2021/01/29 09:24:59;;;;;;;1.33;0.30;;;;;;;;;;4932104;29;20505;-75
2021/01/29 09:27:41;;;;;;;0.90;0.40;;;;;;;;;;4936914;29;20634;-76
2021/01/29 09:30:14;;;;;;;2.50;0.60;;;;;;;;;;4946121;29;20526;-75
2021/01/29 09:32:46;;;;;;;1.30;0.40;;;;;;;;;;4932478;29;20091;-77
2021/01/29 09:35:16;;;;;;;0.63;0.20;;;;;;;;;;4932425;29;20122;-76
2021/01/29 09:37:51;;;;;;;0.20;0.20;;;;;;;;;;4946158;29;20031;-76
2021/01/29 09:40:25;;;;;;;0.30;0.20;;;;;;;;;;4936884;29;20039;-75
2021/01/29 09:42:59;;;;;;;1.97;0.30;;;;;;;;;;4946392;28;20040;-77
2021/01/29 09:45:28;;;;;;;1.43;0.30;;;;;;;;;;4943251;29;20023;-76
2021/01/29 09:47:59;;;;;;;0.23;0.20;;;;;;;;;;4945916;29;20050;-77
2021/01/29 09:50:27;;;;;;;1.77;0.37;;;;;;;;;;4931351;29;20032;-78
2021/01/29 09:53:10;;;;;;;5.30;2.50;;;;;;;;;;4947567;29;20028;-77
2021/01/29 09:55:46;;;;;;;1.70;0.50;;;;;;;;;;4931946;29;20039;-77
2021/01/29 09:58:15;;;;;;;1.30;0.30;;;;;;;;;;4946955;29;20574;-77
2021/01/29 10:00:44;;;;;;;1.30;0.53;;;;;;;;;;4934352;29;20047;-76
2021/01/29 10:03:14;;;;;;;1.43;0.33;;;;;;;;;;4950986;28;20130;-76
2021/01/29 10:05:46;;;;;;;1.17;0.30;;;;;;;;;;4947552;29;20068;-76
2021/01/29 10:08:24;;;;;;;1.40;0.63;;;;;;;;;;4946585;29;20023;-76
2021/01/29 10:10:57;;;;;;;3.87;0.70;;;;;;;;;;4946433;28;20052;-77
2021/01/29 10:13:23;;;;;;;;;;;;;;;;;;4936064;29;20035;-75
2021/01/29 10:15:57;;;;;;;1.37;0.20;;;;;;;;;;4932378;29;19906;-77
2021/01/29 10:18:24;;;;;;;3.07;0.50;;;;;;;;;;4947600;29;20039;-77
2021/01/29 10:20:51;;;;;;;4.00;0.70;;;;;;;;;;4947732;28;20039;-76
2021/01/29 10:23:23;;;;;;;6.07;0.77;;;;;;;;;;4948569;28;20028;-76
2021/01/29 10:26:14;;;;;;;3.50;0.90;;;;;;;;;;4948187;29;20364;-77
2021/01/29 10:28:46;;;;;;;6.00;1.00;;;;;;;;;;4930203;29;20032;-76
2021/01/29 10:31:14;;;;;;;3.67;1.00;;;;;;;;;;4947248;28;20060;-76
2021/01/29 10:33:45;;;;;;;4.80;1.23;;;;;;;;;;4949157;29;20046;-78
2021/01/29 10:36:19;;;;;;;2.33;0.60;;;;;;;;;;4948397;29;20031;-78
2021/01/29 10:39:00;;;;;;;1.43;0.50;;;;;;;;;;4941565;29;20605;-77
2021/01/29 10:41:40;;;;;;;3.10;0.67;;;;;;;;;;4946612;29;20449;-76
2021/01/29 10:44:12;;;;;;;2.43;0.93;;;;;;;;;;4946491;29;20039;-77
2021/01/29 10:46:57;;;;;;;5.13;0.70;;;;;;;;;;4948389;29;20591;-77
2021/01/29 10:49:29;;;;;;;1.40;0.43;;;;;;;;;;4948262;28;20055;-77
2021/01/29 10:51:55;;;;;;;3.93;0.60;;;;;;;;;;4947745;28;20028;-77
2021/01/29 10:54:22;;;;;;;4.90;1.13;;;;;;;;;;4931841;29;20094;-77
2021/01/29 10:56:50;;;;;;;4.57;0.90;;;;;;;;;;4946269;29;20569;-76
2021/01/29 10:59:31;;;;;;;2.93;0.60;;;;;;;;;;4947746;28;20126;-77
2021/01/29 11:02:03;;;;;;;6.87;1.07;;;;;;;;;;4931712;29;20486;-77
2021/01/29 11:04:32;;;;;;;4.50;0.70;;;;;;;;;;4964494;28;20024;-77
2021/01/29 11:07:19;;;;;;;4.23;0.90;;;;;;;;;;4931536;29;20030;-78
2021/01/29 11:09:51;;;;;;;4.27;0.57;;;;;;;;;;4952805;28;20028;-77
2021/01/29 11:12:18;;;;;;;4.20;0.85;;;;;;;;;;4932291;29;20134;-78
2021/01/29 11:14:56;;;;;;;4.00;0.90;;;;;;;;;;4931749;29;20031;-77
2021/01/29 11:17:28;;;;;;;4.33;0.90;;;;;;;;;;4930140;29;20063;-76
2021/01/29 11:19:57;;;;;;;4.87;1.00;;;;;;;;;;4952372;28;20012;-76
2021/01/29 11:22:30;;;;;;;7.13;1.93;;;;;;;;;;4953996;29;20831;-78
2021/01/29 11:24:56;;;;;;;;;;;;;;;;;;4958176;28;20027;-77
2021/01/29 11:27:30;;;;;;;4.50;0.73;;;;;;;;;;4955403;29;19913;-78
2021/01/29 11:30:10;;;;;;;2.97;0.90;;;;;;;;;;4957563;28;20031;-78
2021/01/29 11:32:38;;;;;;;8.57;1.97;;;;;;;;;;4961143;29;20038;-78
2021/01/29 11:35:05;;;;;;;7.30;0.80;;;;;;;;;;4941151;29;20032;-76
2021/01/29 11:37:35;;;;;;;4.27;0.70;;;;;;;;;;4954569;29;20028;-76
2021/01/29 11:40:10;;;;;;;5.63;0.90;;;;;;;;;;4946523;29;20058;-77
2021/01/29 11:42:50;;;;;;;6.97;1.20;;;;;;;;;;4950327;28;20095;-78
2021/01/29 11:45:19;;;;;;;4.77;0.93;;;;;;;;;;4939903;29;20059;-77
2021/01/29 11:48:00;;;;;;;5.70;1.10;;;;;;;;;;4934951;29;20047;-76
2021/01/29 11:50:29;;;;;;;4.30;1.03;;;;;;;;;;4941913;28;20036;-76
2021/01/29 11:53:11;;;;;;;4.43;1.00;;;;;;;;;;4944275;29;20035;-76
2021/01/29 11:55:42;;;;;;;4.80;0.73;;;;;;;;;;4947625;29;20051;-76
2021/01/29 11:58:12;;;;;;;4.47;0.97;;;;;;;;;;4945312;29;20043;-76
2021/01/29 12:00:44;;;;;;;3.03;0.73;;;;;;;;;;4929452;29;20430;-77
2021/01/29 12:03:13;;;;;;;6.77;1.40;;;;;;;;;;4945505;29;20019;-76
2021/01/29 12:05:53;;;;;;;4.07;0.67;;;;;;;;;;4940884;28;20024;-76
2021/01/29 12:08:24;;;;;;;5.67;1.13;;;;;;;;;;4930601;29;20024;-76
2021/01/29 12:11:13;;;;;;;2.47;0.80;;;;;;;;;;4944728;28;20032;-75
2021/01/29 12:13:43;;;;;;;3.90;1.63;;;;;;;;;;4949178;28;20032;-77
2021/01/29 12:16:20;;;;;;;4.53;1.20;;;;;;;;;;4929984;29;20027;-77
2021/01/29 12:18:47;;;;;;;3.60;0.80;;;;;;;;;;4941689;29;20143;-81
2021/01/29 12:21:26;;;;;;;3.27;0.87;;;;;;;;;;4931472;29;20024;-76
2021/01/29 12:24:04;;;;;;;5.13;0.90;;;;;;;;;;4927526;29;20201;-77
2021/01/29 12:26:33;;;;;;;5.03;1.00;;;;;;;;;;4938866;29;20028;-78
2021/01/29 12:28:59;;;;;;;6.27;1.07;;;;;;;;;;4954584;28;20036;-76
2021/01/29 12:31:29;;;;;;;5.97;1.07;;;;;;;;;;4943015;28;20185;-77
2021/01/29 12:34:09;;;;;;;7.37;1.20;;;;;;;;;;4946436;28;20032;-76
2021/01/29 12:36:37;;;;;;;9.57;1.20;;;;;;;;;;4942825;29;20055;-77
2021/01/29 12:39:13;;;;;;;5.30;1.70;;;;;;;;;;4927852;29;20075;-77
2021/01/29 12:42:05;;;;;;;7.80;3.07;;;;;;;;;;4942960;28;20130;-76
2021/01/29 12:44:44;;;;;;;7.87;1.80;;;;;;;;;;4914562;29;20046;-76
2021/01/29 12:47:19;;;;;;;5.33;2.20;;;;;;;;;;4927332;29;20039;-77
2021/01/29 12:49:48;;;;;;;6.07;1.23;;;;;;;;;;4957898;28;20075;-79
2021/01/29 12:52:26;;;;;;;5.13;0.80;;;;;;;;;;4925610;29;20043;-77
2021/01/29 12:54:59;;;;;;;5.07;0.87;;;;;;;;;;4945090;28;20144;-76
2021/01/29 12:57:26;;;;;;;6.25;1.23;;;;;;;;;;4947672;29;20058;-77
2021/01/29 12:59:55;;;;;;;4.37;0.80;;;;;;;;;;4941727;29;20039;-77
2021/01/29 13:02:47;;;;;;;3.70;0.80;;;;;;;;;;4947898;29;20102;-76
2021/01/29 13:05:19;;;;;;;4.97;0.77;;;;;;;;;;4946037;29;20708;-77
2021/01/29 13:07:59;;;;;;;5.00;0.80;;;;;;;;;;4947026;29;20078;-77
2021/01/29 13:10:32;;;;;;;5.97;1.03;;;;;;;;;;4932428;29;20023;-77
2021/01/29 13:13:19;;;;;;;8.52;1.83;;;;;;;;;;4933859;29;20098;-78
2021/01/29 13:15:45;;;;;;;6.53;1.33;;;;;;;;;;4963002;28;20027;-76
2021/01/29 13:18:16;;;;;;;7.03;1.07;;;;;;;;;;4946855;29;20046;-75
2021/01/29 13:20:47;;;;;;;3.97;0.90;;;;;;;;;;4944498;28;20083;-76
2021/01/29 13:23:22;;;;;;;5.80;1.03;;;;;;;;;;4948059;28;20036;-77
2021/01/29 13:26:07;;;;;;;5.03;1.83;;;;;;;;;;4949068;29;20067;-78
2021/01/29 13:28:36;;;;;;;8.33;4.43;;;;;;;;;;4925638;29;20023;-77
2021/01/29 13:31:20;;;;;;;6.10;1.77;;;;;;;;;;4945884;28;20028;-77
2021/01/29 13:33:48;;;;;;;6.95;1.35;;;;;;;;;;4932255;29;20028;-77
2021/01/29 13:36:20;;;;;;;5.90;1.30;;;;;;;;;;4946709;29;20047;-77
2021/01/29 13:38:47;;;;;;;7.13;1.40;;;;;;;;;;4944479;29;20028;-78
2021/01/29 13:41:13;;;;;;;6.67;2.23;;;;;;;;;;4945547;28;20468;-76
2021/01/29 13:43:41;;;;;;;9.10;2.30;;;;;;;;;;4932965;29;20031;-76
2021/01/29 13:46:18;;;;;;;4.30;1.03;;;;;;;;;;4931929;29;20089;-77
2021/01/29 13:48:45;;;;;;;7.20;1.10;;;;;;;;;;4931685;29;20031;-77
2021/01/29 13:51:31;;;;;;;8.07;1.40;;;;;;;;;;4928076;29;20046;-78
2021/01/29 13:53:59;;;;;;;8.17;1.33;;;;;;;;;;4931891;29;20039;-77
2021/01/29 13:56:40;;;;;;;4.90;1.50;;;;;;;;;;4948721;28;20106;-77
2021/01/29 13:59:17;;;;;;;7.07;1.33;;;;;;;;;;4921561;29;20032;-77
2021/01/29 14:01:43;;;;;;;3.57;0.73;;;;;;;;;;4946360;28;20066;-77
2021/01/29 14:04:15;;;;;;;2.50;0.67;;;;;;;;;;4946012;29;20035;-77
2021/01/29 14:06:41;;;;;;;4.63;0.70;;;;;;;;;;4927411;29;20116;-77
2021/01/29 14:09:08;;;;;;;3.23;1.03;;;;;;;;;;4943738;29;20035;-77
2021/01/29 14:11:53;;;;;;;4.27;0.60;;;;;;;;;;4943607;29;20031;-77
2021/01/29 14:14:26;;;;;;;4.37;0.93;;;;;;;;;;4945693;29;20099;-76
2021/01/29 14:17:04;;;;;;;5.72;1.70;;;;;;;;;;4931262;29;20598;-76
2021/01/29 14:19:51;;;;;;;6.30;1.00;;;;;;;;;;4950266;28;20760;-78
2021/01/29 14:22:17;;;;;;;2.60;0.80;;;;;;;;;;4920057;29;20036;-77
2021/01/29 14:24:56;;;;;;;4.17;1.33;;;;;;;;;;4941350;28;20035;-76
2021/01/29 14:27:28;;;;;;;3.67;0.60;;;;;;;;;;4929772;29;20024;-75
2021/01/29 14:30:15;;;;;;;6.00;0.90;;;;;;;;;;4944373;28;20212;-76
2021/01/29 14:32:41;;;;;;;5.77;1.37;;;;;;;;;;4937749;28;20031;-75
2021/01/29 14:35:07;;;;;;;6.97;1.80;;;;;;;;;;4926984;29;20115;-77
2021/01/29 14:37:46;;;;;;;4.30;1.03;;;;;;;;;;4944742;29;20723;-76
2021/01/29 14:40:16;;;;;;;7.80;2.43;;;;;;;;;;4937967;28;20036;-76
2021/01/29 14:42:52;;;;;;;6.07;1.40;;;;;;;;;;4943956;29;20028;-76
2021/01/29 14:45:34;;;;;;;6.03;1.47;;;;;;;;;;4944117;29;20023;-77
2021/01/29 14:48:09;;;;;;;3.87;1.07;;;;;;;;;;4944489;29;20421;-76
2021/01/29 14:50:35;;;;;;;2.37;0.70;;;;;;;;;;4954484;28;20028;-76
2021/01/29 14:53:01;;;;;;;3.13;0.70;;;;;;;;;;4929682;29;20095;-76
2021/01/29 14:55:32;;;;;;;3.20;0.57;;;;;;;;;;4929728;29;20038;-77
2021/01/29 14:57:58;;;;;;;1.87;0.53;;;;;;;;;;4944867;29;20028;-76
2021/01/29 15:00:35;;;;;;;2.50;0.50;;;;;;;;;;4927968;29;20028;-77
2021/01/29 15:03:12;;;;;;;3.13;1.07;;;;;;;;;;4944748;29;20100;-77
2021/01/29 15:05:41;;;;;;;3.33;1.70;;;;;;;;;;4945617;29;20027;-77
2021/01/29 15:08:12;;;;;;;3.17;1.07;;;;;;;;;;4942704;28;20031;-78
2021/01/29 15:10:39;;;;;;;3.70;1.00;;;;;;;;;;4935414;28;20020;-76
2021/01/29 15:13:10;;;;;;;3.33;1.20;;;;;;;;;;4937826;28;20039;-76
2021/01/29 15:15:38;;;;;;;3.23;0.87;;;;;;;;;;4939285;29;20038;-76
2021/01/29 15:18:05;;;;;;;6.10;1.60;;;;;;;;;;4927521;29;20032;-77